Time;durP1;ratioP1;P1;durP2;ratioP2;P2;SDS_P1;SDS_P2;PMS_P1;PMS_P2;Temp;Humidity;BMP_temperature;BMP_pressure;BME280_temperature;BME280_humidity;BME280_pressure;Samples;Min_cycle;Max_cycle;Signal;HPM_P1;HPM_P2
2023/10/31 00:00:13;;;;;;;4.97;0.90;;;;;;;;;;5114106;28;20241;-32
2023/10/31 00:02:38;;;;;;;4.45;1.27;;;;;;;;;;5114030;28;20422;-32
2023/10/31 00:05:04;;;;;;;7.45;1.23;;;;;;;;;;5113953;28;20506;-32
2023/10/31 00:07:29;;;;;;;4.95;1.42;;;;;;;;;;5114455;28;20020;-32
2023/10/31 00:09:54;;;;;;;8.23;2.75;;;;;;;;;;5114520;28;20015;-32
2023/10/31 00:12:20;;;;;;;8.27;3.35;;;;;;;;;;5113141;28;20339;-32
2023/10/31 00:14:45;;;;;;;9.13;3.53;;;;;;;;;;5114126;28;20034;-32
2023/10/31 00:17:10;;;;;;;9.52;4.32;;;;;;;;;;5113853;28;20096;-36
2023/10/31 00:19:35;;;;;;;12.00;5.53;;;;;;;;;;5113951;28;20052;-32
2023/10/31 00:22:00;;;;;;;12.90;6.25;;;;;;;;;;5114356;28;20241;-32
2023/10/31 00:24:26;;;;;;;15.00;5.93;;;;;;;;;;5113795;28;20488;-32
2023/10/31 00:26:51;;;;;;;22.60;7.27;;;;;;;;;;5113798;28;20120;-32
2023/10/31 00:29:17;;;;;;;19.30;6.78;;;;;;;;;;5114046;28;20250;-32
2023/10/31 00:31:42;;;;;;;20.50;7.07;;;;;;;;;;5113752;28;20015;-32
2023/10/31 00:34:08;;;;;;;15.63;7.40;;;;;;;;;;5096186;28;20045;-31
2023/10/31 00:36:33;;;;;;;18.13;7.53;;;;;;;;;;5113958;28;20465;-32
2023/10/31 00:38:58;;;;;;;14.70;8.05;;;;;;;;;;5113452;28;20094;-32
2023/10/31 00:41:23;;;;;;;19.57;8.33;;;;;;;;;;5113597;28;20075;-32
2023/10/31 00:43:48;;;;;;;18.80;8.27;;;;;;;;;;5113641;28;20031;-32
2023/10/31 00:46:14;;;;;;;16.60;7.70;;;;;;;;;;5113851;28;20268;-32
2023/10/31 00:48:39;;;;;;;17.52;7.80;;;;;;;;;;5114119;28;20078;-32
2023/10/31 00:51:04;;;;;;;20.58;8.35;;;;;;;;;;5113736;28;20051;-32
2023/10/31 00:53:29;;;;;;;18.15;8.50;;;;;;;;;;5113975;28;20424;-32
2023/10/31 00:55:55;;;;;;;16.42;8.88;;;;;;;;;;5113526;28;20370;-32
2023/10/31 00:58:20;;;;;;;20.07;8.90;;;;;;;;;;5113747;28;20095;-32
2023/10/31 01:00:45;;;;;;;16.73;8.83;;;;;;;;;;5113509;28;20608;-32
2023/10/31 01:03:10;;;;;;;20.13;9.48;;;;;;;;;;5113432;28;20246;-32
2023/10/31 01:05:35;;;;;;;18.30;9.30;;;;;;;;;;5113667;28;20031;-32
2023/10/31 01:08:01;;;;;;;20.23;8.82;;;;;;;;;;5113396;28;20039;-32
2023/10/31 01:10:26;;;;;;;16.73;8.35;;;;;;;;;;5113957;28;20019;-31
2023/10/31 01:12:51;;;;;;;21.40;8.20;;;;;;;;;;5113208;28;20019;-32
2023/10/31 01:15:16;;;;;;;20.73;8.83;;;;;;;;;;5095030;28;20261;-32
2023/10/31 01:17:41;;;;;;;18.77;7.80;;;;;;;;;;5113784;28;20695;-32
2023/10/31 01:20:07;;;;;;;14.98;7.60;;;;;;;;;;5113304;28;20381;-32
2023/10/31 01:22:32;;;;;;;12.40;6.65;;;;;;;;;;5113554;28;20056;-32
2023/10/31 01:24:57;;;;;;;14.85;5.78;;;;;;;;;;5116986;28;20504;-32
2023/10/31 01:27:22;;;;;;;10.33;5.47;;;;;;;;;;5117011;28;20090;-32
2023/10/31 01:29:48;;;;;;;11.97;5.07;;;;;;;;;;5116827;28;20269;-32
2023/10/31 01:32:13;;;;;;;10.43;4.30;;;;;;;;;;5117354;28;20237;-32
2023/10/31 01:34:38;;;;;;;6.27;3.20;;;;;;;;;;5116702;28;20360;-32
2023/10/31 01:37:03;;;;;;;8.32;3.65;;;;;;;;;;5117200;28;20258;-32
2023/10/31 01:39:29;;;;;;;8.13;3.40;;;;;;;;;;5116664;28;20011;-32
2023/10/31 01:41:54;;;;;;;10.67;3.77;;;;;;;;;;5116660;28;20084;-32
2023/10/31 01:44:19;;;;;;;6.63;3.30;;;;;;;;;;5116823;28;20728;-32
2023/10/31 01:46:45;;;;;;;7.13;3.45;;;;;;;;;;5116574;28;20024;-32
2023/10/31 01:49:10;;;;;;;6.63;3.45;;;;;;;;;;5098212;28;20020;-32
2023/10/31 01:51:35;;;;;;;5.45;3.38;;;;;;;;;;5116345;28;20138;-32
2023/10/31 01:54:01;;;;;;;9.20;3.47;;;;;;;;;;5116369;28;20016;-31
2023/10/31 01:56:26;;;;;;;6.65;3.90;;;;;;;;;;5116620;28;20480;-32
2023/10/31 01:58:52;;;;;;;6.95;3.50;;;;;;;;;;5116594;28;20024;-32
2023/10/31 02:01:17;;;;;;;6.65;3.92;;;;;;;;;;5116870;28;20012;-32
2023/10/31 02:03:43;;;;;;;9.60;3.90;;;;;;;;;;5116826;28;20503;-32
2023/10/31 02:06:08;;;;;;;5.72;3.70;;;;;;;;;;5116197;28;20517;-32
2023/10/31 02:08:33;;;;;;;10.15;4.00;;;;;;;;;;5116236;28;20097;-32
2023/10/31 02:10:58;;;;;;;10.90;4.03;;;;;;;;;;5116278;28;20057;-31
2023/10/31 02:13:24;;;;;;;9.23;5.40;;;;;;;;;;5116056;28;20028;-32
2023/10/31 02:15:49;;;;;;;11.80;5.95;;;;;;;;;;5116067;28;20336;-32
2023/10/31 02:18:14;;;;;;;13.70;6.70;;;;;;;;;;5116073;28;20019;-31
2023/10/31 02:20:40;;;;;;;15.32;7.53;;;;;;;;;;5115951;28;20624;-32
2023/10/31 02:23:05;;;;;;;14.30;7.05;;;;;;;;;;5115870;28;20023;-32
2023/10/31 02:25:30;;;;;;;20.48;8.30;;;;;;;;;;5115822;28;20023;-31
2023/10/31 02:27:56;;;;;;;16.30;8.32;;;;;;;;;;5116148;28;20051;-32
2023/10/31 02:30:21;;;;;;;17.50;8.65;;;;;;;;;;5115835;28;20018;-32
2023/10/31 02:32:47;;;;;;;18.77;9.02;;;;;;;;;;5115616;28;20095;-32
2023/10/31 02:35:12;;;;;;;22.77;9.10;;;;;;;;;;5115014;28;20023;-31
2023/10/31 02:37:37;;;;;;;20.35;9.45;;;;;;;;;;5115825;28;20011;-32
2023/10/31 02:40:03;;;;;;;18.60;8.73;;;;;;;;;;5115622;28;20454;-32
2023/10/31 02:42:28;;;;;;;16.88;8.18;;;;;;;;;;5115762;28;20249;-32
2023/10/31 02:44:53;;;;;;;16.27;7.67;;;;;;;;;;5115497;28;20018;-32
2023/10/31 02:47:18;;;;;;;16.73;7.93;;;;;;;;;;5115418;28;20735;-32
2023/10/31 02:49:44;;;;;;;14.60;7.38;;;;;;;;;;5115396;28;20027;-32
2023/10/31 02:52:09;;;;;;;16.27;6.80;;;;;;;;;;5115124;28;20040;-32
2023/10/31 02:54:34;;;;;;;13.65;6.88;;;;;;;;;;5096986;28;20011;-32
2023/10/31 02:56:59;;;;;;;14.40;6.37;;;;;;;;;;5115243;28;20008;-32
2023/10/31 02:59:24;;;;;;;12.83;5.70;;;;;;;;;;5115463;28;20252;-32
2023/10/31 03:01:50;;;;;;;13.20;5.38;;;;;;;;;;5115105;28;20626;-32
2023/10/31 03:04:15;;;;;;;10.17;4.87;;;;;;;;;;5115029;28;20020;-32
2023/10/31 03:06:40;;;;;;;11.73;4.67;;;;;;;;;;5114961;28;20265;-31
2023/10/31 03:09:06;;;;;;;8.23;4.10;;;;;;;;;;5115012;28;20604;-32
2023/10/31 03:11:32;;;;;;;7.15;3.33;;;;;;;;;;5115283;28;20030;-32
2023/10/31 03:13:57;;;;;;;6.53;3.22;;;;;;;;;;5115089;28;20240;-32
2023/10/31 03:16:23;;;;;;;6.78;2.60;;;;;;;;;;5114827;28;20489;-32
2023/10/31 03:18:48;;;;;;;6.55;2.30;;;;;;;;;;5115075;28;20347;-32
2023/10/31 03:21:14;;;;;;;7.68;2.30;;;;;;;;;;5114906;28;20047;-32
2023/10/31 03:23:40;;;;;;;3.78;1.90;;;;;;;;;;5114710;28;20462;-32
2023/10/31 03:26:05;;;;;;;3.63;1.85;;;;;;;;;;5114594;28;20026;-32
2023/10/31 03:28:30;;;;;;;7.03;1.70;;;;;;;;;;5114640;28;20016;-32
2023/10/31 03:30:55;;;;;;;8.07;1.67;;;;;;;;;;5114511;28;20269;-32
2023/10/31 03:33:20;;;;;;;3.83;1.30;;;;;;;;;;5114968;28;20279;-32
2023/10/31 03:35:46;;;;;;;4.47;1.30;;;;;;;;;;5114533;28;20307;-32
2023/10/31 03:38:11;;;;;;;5.50;1.45;;;;;;;;;;5114717;28;20250;-32
2023/10/31 03:40:36;;;;;;;2.28;1.05;;;;;;;;;;5114410;28;20039;-32
2023/10/31 03:43:02;;;;;;;3.28;1.10;;;;;;;;;;5114629;28;20075;-32
2023/10/31 03:45:27;;;;;;;6.18;1.02;;;;;;;;;;5114250;28;20102;-32
2023/10/31 03:47:52;;;;;;;3.27;0.93;;;;;;;;;;5113652;28;20024;-32
2023/10/31 03:50:17;;;;;;;5.67;1.10;;;;;;;;;;5114055;28;20767;-32
2023/10/31 03:52:42;;;;;;;4.88;1.05;;;;;;;;;;5114062;28;20258;-31
2023/10/31 03:55:08;;;;;;;5.45;1.10;;;;;;;;;;5114411;28;20015;-32
2023/10/31 03:57:33;;;;;;;7.18;1.10;;;;;;;;;;5114134;28;20023;-32
2023/10/31 03:59:58;;;;;;;7.27;1.40;;;;;;;;;;5114328;28;20026;-33
2023/10/31 04:02:23;;;;;;;4.53;1.10;;;;;;;;;;5114547;28;20249;-33
2023/10/31 04:04:48;;;;;;;5.20;1.40;;;;;;;;;;5114283;28;20671;-32
2023/10/31 04:07:14;;;;;;;4.40;0.88;;;;;;;;;;5096082;28;20103;-32
2023/10/31 04:09:39;;;;;;;3.92;1.00;;;;;;;;;;5114223;28;20023;-32
2023/10/31 04:12:04;;;;;;;4.53;0.63;;;;;;;;;;5113864;28;20527;-32
2023/10/31 04:14:30;;;;;;;4.28;0.90;;;;;;;;;;5114345;28;20030;-31
2023/10/31 04:16:55;;;;;;;2.10;0.67;;;;;;;;;;5113913;28;20134;-32
2023/10/31 04:19:20;;;;;;;4.37;0.90;;;;;;;;;;5114120;28;20648;-32
2023/10/31 04:21:45;;;;;;;4.77;0.70;;;;;;;;;;5114349;28;20249;-32
2023/10/31 04:24:10;;;;;;;3.63;1.00;;;;;;;;;;5113796;28;20260;-32
2023/10/31 04:26:35;;;;;;;2.27;0.43;;;;;;;;;;5113822;28;20261;-32
2023/10/31 04:29:01;;;;;;;1.37;0.73;;;;;;;;;;5113776;28;20252;-32
2023/10/31 04:31:26;;;;;;;4.93;0.95;;;;;;;;;;5114316;28;20352;-32
2023/10/31 04:33:51;;;;;;;3.73;0.63;;;;;;;;;;5113656;28;20456;-32
2023/10/31 04:36:16;;;;;;;4.93;1.10;;;;;;;;;;5113998;28;20256;-32
2023/10/31 04:38:41;;;;;;;6.22;0.90;;;;;;;;;;5113678;28;20246;-32
2023/10/31 04:41:07;;;;;;;3.67;0.60;;;;;;;;;;5113700;28;20028;-32
2023/10/31 04:43:33;;;;;;;4.07;0.68;;;;;;;;;;5113915;28;20341;-32
2023/10/31 04:45:58;;;;;;;2.50;0.50;;;;;;;;;;5095350;28;20454;-32
2023/10/31 04:48:23;;;;;;;2.93;0.60;;;;;;;;;;5114143;28;20262;-32
2023/10/31 04:50:48;;;;;;;3.73;0.63;;;;;;;;;;5113435;28;20310;-31
2023/10/31 04:53:13;;;;;;;1.42;0.52;;;;;;;;;;5114012;28;20291;-32
2023/10/31 04:55:38;;;;;;;6.03;0.50;;;;;;;;;;5113821;28;20023;-31
2023/10/31 04:58:04;;;;;;;3.10;0.47;;;;;;;;;;5114525;28;20650;-32
2023/10/31 05:00:29;;;;;;;3.97;0.47;;;;;;;;;;5117488;28;20265;-32
2023/10/31 05:02:56;;;;;;;4.57;0.63;;;;;;;;;;5118042;28;20003;-32
2023/10/31 05:05:21;;;;;;;3.00;0.55;;;;;;;;;;5117461;28;20323;-32
2023/10/31 05:07:47;;;;;;;2.08;0.75;;;;;;;;;;5117676;28;20012;-32
2023/10/31 05:10:12;;;;;;;5.27;0.80;;;;;;;;;;5117333;28;20043;-32
2023/10/31 05:12:37;;;;;;;5.85;0.55;;;;;;;;;;5117763;28;20254;-32
2023/10/31 05:15:02;;;;;;;1.80;0.40;;;;;;;;;;5117122;28;20020;-32
2023/10/31 05:17:28;;;;;;;2.40;0.45;;;;;;;;;;5117812;28;20701;-32
2023/10/31 05:19:53;;;;;;;2.00;0.40;;;;;;;;;;5117144;28;20020;-32
2023/10/31 05:22:18;;;;;;;4.20;0.70;;;;;;;;;;5117623;28;20020;-32
2023/10/31 05:24:43;;;;;;;2.50;0.60;;;;;;;;;;5117082;28;20643;-31
2023/10/31 05:27:09;;;;;;;5.13;0.57;;;;;;;;;;5117524;28;20242;-32
2023/10/31 05:29:34;;;;;;;2.45;0.57;;;;;;;;;;5117296;28;20347;-32
2023/10/31 05:32:01;;;;;;;2.85;0.55;;;;;;;;;;5117448;28;20494;-32
2023/10/31 05:34:26;;;;;;;5.78;0.63;;;;;;;;;;5116948;28;20028;-32
2023/10/31 05:36:51;;;;;;;0.77;0.40;;;;;;;;;;5117528;28;20008;-32
2023/10/31 05:39:16;;;;;;;2.37;0.57;;;;;;;;;;5117274;28;20015;-32
2023/10/31 05:41:42;;;;;;;3.05;0.63;;;;;;;;;;5117245;28;20249;-32
2023/10/31 05:44:07;;;;;;;1.83;0.60;;;;;;;;;;5116882;28;20434;-32
2023/10/31 05:46:37;;;;;;;1.97;0.60;;;;;;;;;;5098355;28;20470;-34
2023/10/31 05:49:03;;;;;;;2.35;0.90;;;;;;;;;;5116876;28;20341;-34
2023/10/31 05:51:29;;;;;;;1.60;0.70;;;;;;;;;;5117154;28;20436;-32
2023/10/31 05:53:54;;;;;;;3.35;1.13;;;;;;;;;;5116389;28;20051;-32
2023/10/31 05:56:20;;;;;;;3.40;1.20;;;;;;;;;;5116458;28;20047;-32
2023/10/31 05:58:45;;;;;;;2.40;1.40;;;;;;;;;;5098107;28;20265;-32
2023/10/31 06:01:10;;;;;;;2.15;1.30;;;;;;;;;;5116353;28;20302;-32
2023/10/31 06:03:35;;;;;;;3.78;1.65;;;;;;;;;;5116888;28;20012;-32
2023/10/31 06:06:00;;;;;;;3.33;1.48;;;;;;;;;;5116294;28;20016;-32
2023/10/31 06:08:28;;;;;;;10.07;2.17;;;;;;;;;;5116194;28;20024;-32
2023/10/31 06:10:54;;;;;;;4.18;2.10;;;;;;;;;;5115225;28;20260;-32
2023/10/31 06:13:20;;;;;;;4.90;2.40;;;;;;;;;;5116200;28;20378;-32
2023/10/31 06:15:45;;;;;;;3.80;2.53;;;;;;;;;;5116391;28;20015;-32
2023/10/31 06:18:10;;;;;;;5.70;2.80;;;;;;;;;;5116332;28;20020;-32
2023/10/31 06:20:35;;;;;;;4.97;2.50;;;;;;;;;;5115965;28;20019;-32
2023/10/31 06:23:03;;;;;;;8.77;2.80;;;;;;;;;;5115812;28;20600;-33
2023/10/31 06:25:28;;;;;;;5.28;2.58;;;;;;;;;;5116399;28;20094;-33
2023/10/31 06:27:53;;;;;;;5.87;2.60;;;;;;;;;;5115794;28;20108;-33
2023/10/31 06:30:19;;;;;;;5.68;2.92;;;;;;;;;;5116003;28;20249;-37
2023/10/31 06:32:44;;;;;;;10.73;2.97;;;;;;;;;;5115964;28;20015;-32
2023/10/31 06:35:09;;;;;;;7.43;3.20;;;;;;;;;;5115654;28;20272;-33
2023/10/31 06:37:36;;;;;;;8.88;3.20;;;;;;;;;;5116171;28;20306;-33
2023/10/31 06:40:01;;;;;;;8.75;3.58;;;;;;;;;;5115781;28;20015;-32
2023/10/31 06:42:26;;;;;;;5.80;3.25;;;;;;;;;;5115574;28;20358;-33
2023/10/31 06:44:51;;;;;;;8.20;3.70;;;;;;;;;;5115793;28;20023;-33
2023/10/31 06:47:17;;;;;;;11.03;3.90;;;;;;;;;;5115415;28;20466;-32
2023/10/31 06:49:42;;;;;;;11.17;4.60;;;;;;;;;;5115403;28;20254;-33
2023/10/31 06:52:07;;;;;;;13.63;5.07;;;;;;;;;;5115215;28;20048;-33
2023/10/31 06:54:32;;;;;;;9.73;4.70;;;;;;;;;;5115732;28;20273;-32
2023/10/31 06:56:57;;;;;;;10.70;5.22;;;;;;;;;;5115482;28;20269;-32
2023/10/31 06:59:22;;;;;;;12.32;5.50;;;;;;;;;;5115222;28;20016;-32
2023/10/31 07:01:48;;;;;;;12.73;5.03;;;;;;;;;;5115408;28;20023;-32
2023/10/31 07:04:13;;;;;;;9.93;5.18;;;;;;;;;;5115519;28;20278;-32
2023/10/31 07:06:39;;;;;;;10.45;5.00;;;;;;;;;;5115696;28;20019;-33
2023/10/31 07:09:05;;;;;;;10.55;4.60;;;;;;;;;;5115503;28;20020;-33
2023/10/31 07:11:33;;;;;;;9.45;4.07;;;;;;;;;;5114830;28;20031;-33
2023/10/31 07:13:58;;;;;;;10.23;4.10;;;;;;;;;;5114943;28;20485;-32
2023/10/31 07:16:24;;;;;;;7.97;3.97;;;;;;;;;;5096570;28;20019;-32
2023/10/31 07:18:49;;;;;;;5.13;3.10;;;;;;;;;;5115296;28;20250;-32
2023/10/31 07:21:14;;;;;;;5.97;2.67;;;;;;;;;;5114501;28;20269;-32
2023/10/31 07:23:39;;;;;;;5.95;3.00;;;;;;;;;;5114641;28;20319;-32
2023/10/31 07:26:04;;;;;;;8.65;2.60;;;;;;;;;;5114614;28;20130;-32
2023/10/31 07:28:30;;;;;;;13.55;2.72;;;;;;;;;;5115123;28;20023;-32
2023/10/31 07:30:55;;;;;;;5.07;2.50;;;;;;;;;;5114528;28;20011;-33
2023/10/31 07:33:20;;;;;;;7.50;2.40;;;;;;;;;;5114504;28;20373;-32
2023/10/31 07:35:45;;;;;;;6.30;2.33;;;;;;;;;;5114370;28;20330;-33
2023/10/31 07:38:10;;;;;;;5.90;2.10;;;;;;;;;;5096953;28;20264;-33
2023/10/31 07:40:36;;;;;;;3.97;1.92;;;;;;;;;;5114426;28;20173;-33
2023/10/31 07:43:01;;;;;;;4.47;1.60;;;;;;;;;;5114107;28;20016;-33
2023/10/31 07:45:26;;;;;;;3.88;1.80;;;;;;;;;;5114388;28;20633;-33
2023/10/31 07:47:51;;;;;;;8.13;2.00;;;;;;;;;;5114522;28;20098;-32
2023/10/31 07:50:16;;;;;;;6.67;1.90;;;;;;;;;;5114068;28;20044;-33
2023/10/31 07:52:43;;;;;;;4.90;1.83;;;;;;;;;;5113314;28;20377;-33
2023/10/31 07:55:11;;;;;;;4.32;1.80;;;;;;;;;;5113378;28;20026;-33
2023/10/31 07:57:36;;;;;;;3.50;1.65;;;;;;;;;;5114029;28;20015;-33
2023/10/31 08:00:02;;;;;;;4.60;2.00;;;;;;;;;;5094850;28;20011;-33
2023/10/31 08:02:27;;;;;;;5.85;1.95;;;;;;;;;;5095772;28;20608;-33
2023/10/31 08:04:52;;;;;;;5.03;1.80;;;;;;;;;;5113899;28;20050;-33
2023/10/31 08:07:17;;;;;;;3.93;1.70;;;;;;;;;;5114460;28;20019;-33
2023/10/31 08:09:43;;;;;;;5.00;1.93;;;;;;;;;;5113890;28;20751;-32
2023/10/31 08:12:08;;;;;;;5.97;2.10;;;;;;;;;;5114120;28;20325;-33
2023/10/31 08:14:33;;;;;;;9.20;2.20;;;;;;;;;;5114330;28;20078;-33
2023/10/31 08:16:58;;;;;;;13.77;2.30;;;;;;;;;;5113851;28;20406;-33
2023/10/31 08:19:23;;;;;;;4.43;1.97;;;;;;;;;;5113801;28;20030;-33
2023/10/31 08:21:49;;;;;;;7.90;1.90;;;;;;;;;;5113817;28;20523;-33
2023/10/31 08:24:14;;;;;;;9.13;2.13;;;;;;;;;;5113730;28;20019;-33
2023/10/31 08:26:39;;;;;;;5.75;1.80;;;;;;;;;;5114456;28;20024;-33
2023/10/31 08:29:04;;;;;;;5.82;1.95;;;;;;;;;;5112324;28;20102;-33
2023/10/31 08:31:30;;;;;;;6.20;2.13;;;;;;;;;;5111485;28;20476;-33
2023/10/31 08:33:55;;;;;;;5.87;1.90;;;;;;;;;;5113888;28;20277;-33
2023/10/31 08:36:20;;;;;;;6.50;2.03;;;;;;;;;;5113140;28;20262;-33
2023/10/31 08:38:45;;;;;;;6.50;2.03;;;;;;;;;;5114474;28;20338;-33
2023/10/31 08:41:10;;;;;;;6.53;2.13;;;;;;;;;;5115854;28;20324;-33
2023/10/31 08:43:36;;;;;;;5.50;2.20;;;;;;;;;;5116588;28;20253;-33
2023/10/31 08:46:01;;;;;;;6.03;2.20;;;;;;;;;;5117625;28;20019;-33
2023/10/31 08:48:26;;;;;;;8.60;2.03;;;;;;;;;;5118118;28;20714;-33
2023/10/31 08:50:51;;;;;;;7.20;2.25;;;;;;;;;;5117602;28;20048;-33
2023/10/31 08:53:19;;;;;;;7.37;2.00;;;;;;;;;;5116737;28;20028;-33
2023/10/31 08:55:44;;;;;;;6.20;2.10;;;;;;;;;;5118092;28;20276;-33
2023/10/31 08:58:13;;;;;;;7.43;2.20;;;;;;;;;;5117815;28;20035;-34
2023/10/31 09:00:38;;;;;;;6.88;2.35;;;;;;;;;;5117319;28;20019;-34
2023/10/31 09:03:03;;;;;;;6.70;1.93;;;;;;;;;;5117415;28;20026;-34
2023/10/31 09:05:28;;;;;;;5.97;1.90;;;;;;;;;;5117414;28;20450;-34
2023/10/31 09:07:53;;;;;;;9.27;1.93;;;;;;;;;;5118032;28;20019;-34
2023/10/31 09:10:18;;;;;;;4.90;1.90;;;;;;;;;;5117391;28;20450;-34
2023/10/31 09:12:44;;;;;;;5.93;2.03;;;;;;;;;;5117143;28;20015;-34
2023/10/31 09:15:09;;;;;;;6.13;1.77;;;;;;;;;;5117124;28;20035;-34
2023/10/31 09:17:34;;;;;;;6.38;1.90;;;;;;;;;;5116662;28;20261;-34
2023/10/31 09:19:59;;;;;;;7.07;1.83;;;;;;;;;;5117179;28;20435;-34
2023/10/31 09:22:25;;;;;;;7.27;2.00;;;;;;;;;;5117429;28;20024;-34
2023/10/31 09:24:51;;;;;;;7.85;2.17;;;;;;;;;;5117535;28;20332;-34
2023/10/31 09:27:16;;;;;;;9.95;2.20;;;;;;;;;;5116182;28;20023;-34
2023/10/31 09:29:41;;;;;;;6.83;2.40;;;;;;;;;;5116284;28;20019;-34
2023/10/31 09:32:06;;;;;;;10.30;2.22;;;;;;;;;;5116985;28;20011;-34
2023/10/31 09:34:31;;;;;;;9.50;2.20;;;;;;;;;;5117371;28;20031;-34
2023/10/31 09:36:57;;;;;;;8.47;2.17;;;;;;;;;;5116722;28;20022;-34
2023/10/31 09:39:23;;;;;;;5.75;2.40;;;;;;;;;;5116769;28;20007;-34
2023/10/31 09:41:48;;;;;;;9.03;2.77;;;;;;;;;;5116659;28;20012;-33
2023/10/31 09:44:13;;;;;;;7.95;2.78;;;;;;;;;;5116908;28;20015;-33
2023/10/31 09:46:39;;;;;;;10.73;2.63;;;;;;;;;;5116678;28;20073;-34
2023/10/31 09:49:05;;;;;;;10.60;2.88;;;;;;;;;;5116563;28;20328;-33
2023/10/31 09:51:30;;;;;;;15.25;2.95;;;;;;;;;;5116463;28;20462;-34
2023/10/31 09:53:56;;;;;;;10.17;2.97;;;;;;;;;;5116408;28;20027;-33
2023/10/31 09:56:22;;;;;;;11.65;2.80;;;;;;;;;;5098069;28;20265;-33
2023/10/31 09:58:47;;;;;;;7.57;2.80;;;;;;;;;;5116837;28;20012;-33
2023/10/31 10:01:12;;;;;;;11.55;3.00;;;;;;;;;;5116356;28;20253;-33
2023/10/31 10:03:38;;;;;;;9.30;2.75;;;;;;;;;;5116489;28;20038;-33
2023/10/31 10:06:03;;;;;;;10.45;3.10;;;;;;;;;;5116708;28;20027;-34
2023/10/31 10:08:28;;;;;;;7.95;2.38;;;;;;;;;;5116128;28;20020;-34
2023/10/31 10:10:53;;;;;;;8.40;2.50;;;;;;;;;;5116128;28;20509;-34
2023/10/31 10:13:20;;;;;;;7.07;2.45;;;;;;;;;;5115926;28;20016;-34
2023/10/31 10:15:48;;;;;;;7.53;2.38;;;;;;;;;;5098064;28;20020;-34
2023/10/31 10:18:24;;;;;;;8.55;2.30;;;;;;;;;;5116029;28;20019;-35
2023/10/31 10:20:54;;;;;;;5.70;2.17;;;;;;;;;;5116539;28;20058;-34
2023/10/31 10:23:19;;;;;;;6.25;2.10;;;;;;;;;;5115894;28;20026;-35
2023/10/31 10:25:48;;;;;;;6.63;2.00;;;;;;;;;;5116195;28;20028;-35
2023/10/31 10:28:13;;;;;;;6.30;1.80;;;;;;;;;;5116331;28;20343;-34
2023/10/31 10:30:39;;;;;;;8.45;1.80;;;;;;;;;;5115929;28;20499;-35
2023/10/31 10:33:05;;;;;;;6.18;2.10;;;;;;;;;;5115917;28;20027;-39
2023/10/31 10:35:30;;;;;;;7.55;1.85;;;;;;;;;;5115672;28;20050;-34
2023/10/31 10:37:56;;;;;;;5.33;1.83;;;;;;;;;;5115936;28;20102;-34
2023/10/31 10:40:21;;;;;;;5.50;1.60;;;;;;;;;;5115336;28;20068;-34
2023/10/31 10:42:48;;;;;;;4.65;1.55;;;;;;;;;;5115717;28;20015;-34
2023/10/31 10:45:14;;;;;;;8.35;1.88;;;;;;;;;;5115359;28;20021;-34
2023/10/31 10:47:39;;;;;;;7.20;1.55;;;;;;;;;;5115765;28;20102;-34
2023/10/31 10:50:05;;;;;;;8.05;1.88;;;;;;;;;;5114594;28;20514;-34
2023/10/31 10:52:35;;;;;;;5.38;1.52;;;;;;;;;;5114587;28;20108;-34
2023/10/31 10:55:07;;;;;;;5.47;1.60;;;;;;;;;;5114338;28;20359;-34
2023/10/31 10:57:45;;;;;;;7.28;1.85;;;;;;;;;;5095650;28;20522;-34
2023/10/31 11:00:12;;;;;;;6.72;2.10;;;;;;;;;;5114433;28;20016;-34
2023/10/31 11:02:39;;;;;;;9.27;1.80;;;;;;;;;;5114281;28;20098;-34
2023/10/31 11:05:05;;;;;;;9.13;1.90;;;;;;;;;;5115094;28;20020;-34
2023/10/31 11:07:31;;;;;;;9.65;2.30;;;;;;;;;;5095584;28;20030;-34
2023/10/31 11:09:57;;;;;;;10.25;2.15;;;;;;;;;;5114854;28;20031;-34
2023/10/31 11:12:22;;;;;;;8.80;2.38;;;;;;;;;;5114781;28;20098;-34
2023/10/31 11:14:48;;;;;;;9.32;2.70;;;;;;;;;;5114741;28;20535;-34
2023/10/31 11:17:29;;;;;;;6.95;2.05;;;;;;;;;;5114563;28;20015;-34
2023/10/31 11:19:55;;;;;;;9.52;2.33;;;;;;;;;;5113024;28;20051;-34
2023/10/31 11:22:21;;;;;;;6.20;2.35;;;;;;;;;;5114952;28;20020;-34
2023/10/31 11:24:48;;;;;;;7.13;2.28;;;;;;;;;;5113293;28;20031;-34
2023/10/31 11:27:13;;;;;;;16.50;2.50;;;;;;;;;;5113334;28;20043;-35
2023/10/31 11:29:39;;;;;;;7.15;2.38;;;;;;;;;;5094708;28;20132;-34
2023/10/31 11:32:08;;;;;;;8.73;2.60;;;;;;;;;;5114582;28;20020;-34
2023/10/31 11:34:35;;;;;;;6.95;2.67;;;;;;;;;;5114361;28;20024;-34
2023/10/31 11:37:18;;;;;;;9.98;2.75;;;;;;;;;;5114356;28;20466;-34
2023/10/31 11:40:03;;;;;;;7.22;2.00;;;;;;;;;;5115112;28;20016;-33
2023/10/31 11:42:31;;;;;;;9.98;2.20;;;;;;;;;;5114514;28;20023;-33
2023/10/31 11:44:56;;;;;;;7.10;2.30;;;;;;;;;;5113302;28;20050;-33
2023/10/31 11:47:22;;;;;;;8.43;2.03;;;;;;;;;;5114620;28;20023;-33
2023/10/31 11:49:48;;;;;;;8.30;2.15;;;;;;;;;;5114486;28;20092;-33
2023/10/31 11:52:19;;;;;;;6.45;2.13;;;;;;;;;;5114122;28;20039;-33
2023/10/31 11:54:44;;;;;;;8.07;2.10;;;;;;;;;;5114286;28;20023;-33
2023/10/31 11:57:10;;;;;;;9.77;2.13;;;;;;;;;;5114057;28;20557;-33
2023/10/31 11:59:39;;;;;;;6.90;1.90;;;;;;;;;;5114175;28;20031;-33
2023/10/31 12:02:14;;;;;;;6.65;1.95;;;;;;;;;;5114408;28;20370;-33
2023/10/31 12:04:39;;;;;;;7.82;1.98;;;;;;;;;;5114335;28;20428;-33
2023/10/31 12:07:05;;;;;;;7.82;1.70;;;;;;;;;;5113674;28;20020;-36
2023/10/31 12:09:30;;;;;;;8.07;1.83;;;;;;;;;;5113921;28;20492;-33
2023/10/31 12:11:55;;;;;;;7.00;1.80;;;;;;;;;;5113865;28;20055;-33
2023/10/31 12:14:21;;;;;;;5.23;1.67;;;;;;;;;;5114254;28;20281;-33
2023/10/31 12:16:46;;;;;;;8.15;1.98;;;;;;;;;;5113811;28;20257;-33
2023/10/31 12:19:11;;;;;;;5.78;1.70;;;;;;;;;;5113922;28;20032;-33
2023/10/31 12:21:43;;;;;;;6.60;2.63;;;;;;;;;;5113802;28;20016;-39
2023/10/31 12:24:10;;;;;;;5.77;2.53;;;;;;;;;;5114090;28;20015;-33
2023/10/31 12:26:35;;;;;;;7.57;2.65;;;;;;;;;;5114037;28;20564;-33
2023/10/31 12:29:08;;;;;;;12.38;2.78;;;;;;;;;;5113805;28;20055;-33
2023/10/31 12:31:33;;;;;;;10.23;2.47;;;;;;;;;;5095240;28;20066;-33
2023/10/31 12:34:04;;;;;;;6.93;2.90;;;;;;;;;;5113345;28;20051;-33
2023/10/31 12:36:29;;;;;;;13.98;3.20;;;;;;;;;;5113671;28;20014;-34
2023/10/31 12:38:54;;;;;;;10.00;4.10;;;;;;;;;;5095557;28;20122;-33
2023/10/31 12:41:20;;;;;;;13.68;6.40;;;;;;;;;;5113571;28;20012;-33
2023/10/31 12:43:45;;;;;;;15.20;8.70;;;;;;;;;;5113877;28;20024;-33
2023/10/31 12:46:29;;;;;;;15.40;8.03;;;;;;;;;;5113562;28;20026;-33
2023/10/31 12:48:55;;;;;;;14.90;7.40;;;;;;;;;;5114145;28;20704;-33
2023/10/31 12:51:20;;;;;;;15.05;6.80;;;;;;;;;;5113425;28;20039;-33
2023/10/31 12:53:49;;;;;;;12.48;6.60;;;;;;;;;;5113580;28;20050;-33
2023/10/31 12:56:33;;;;;;;9.35;5.32;;;;;;;;;;5095254;28;20011;-33
2023/10/31 12:58:59;;;;;;;10.55;4.70;;;;;;;;;;5113435;28;20020;-33
2023/10/31 13:01:24;;;;;;;7.87;4.70;;;;;;;;;;5113006;28;20080;-33
2023/10/31 13:03:50;;;;;;;8.90;5.43;;;;;;;;;;5112419;28;20322;-33
2023/10/31 13:06:15;;;;;;;15.35;7.15;;;;;;;;;;5093007;28;20023;-33
2023/10/31 13:08:41;;;;;;;14.30;8.02;;;;;;;;;;5112132;28;20024;-33
2023/10/31 13:11:09;;;;;;;17.47;8.83;;;;;;;;;;5113519;28;20024;-33
2023/10/31 13:13:34;;;;;;;16.88;9.45;;;;;;;;;;5113204;28;20054;-33
2023/10/31 13:15:59;;;;;;;15.13;9.17;;;;;;;;;;5113681;28;20039;-34
2023/10/31 13:18:24;;;;;;;20.90;10.37;;;;;;;;;;5113130;28;20008;-37
2023/10/31 13:20:49;;;;;;;18.63;10.50;;;;;;;;;;5117424;28;20245;-33
2023/10/31 13:23:14;;;;;;;20.10;11.00;;;;;;;;;;5116989;28;20281;-33
2023/10/31 13:25:40;;;;;;;22.87;10.90;;;;;;;;;;5116602;28;20356;-33
2023/10/31 13:28:07;;;;;;;20.08;11.63;;;;;;;;;;5116736;28;20481;-33
2023/10/31 13:30:32;;;;;;;20.55;11.43;;;;;;;;;;5115749;28;20016;-33
2023/10/31 13:32:57;;;;;;;23.47;12.00;;;;;;;;;;5117163;28;20125;-33
2023/10/31 13:35:23;;;;;;;23.35;12.13;;;;;;;;;;5117038;28;20110;-33
2023/10/31 13:37:48;;;;;;;21.50;11.25;;;;;;;;;;5098452;28;20020;-33
2023/10/31 13:40:13;;;;;;;22.03;11.40;;;;;;;;;;5117372;28;20011;-33
2023/10/31 13:42:40;;;;;;;19.70;10.45;;;;;;;;;;5116735;28;20285;-34
2023/10/31 13:45:05;;;;;;;21.90;9.68;;;;;;;;;;5117087;28;20019;-33
2023/10/31 13:47:30;;;;;;;21.13;10.52;;;;;;;;;;5117016;28;20102;-33
2023/10/31 13:49:56;;;;;;;21.08;9.93;;;;;;;;;;5116421;28;20023;-33
2023/10/31 13:52:21;;;;;;;20.43;10.77;;;;;;;;;;5116795;28;20027;-33
2023/10/31 13:54:47;;;;;;;19.05;10.18;;;;;;;;;;5116557;28;20623;-33
2023/10/31 13:57:12;;;;;;;20.95;11.18;;;;;;;;;;5116657;28;20454;-35
2023/10/31 13:59:37;;;;;;;21.13;10.97;;;;;;;;;;5116326;28;20037;-33
2023/10/31 14:02:02;;;;;;;23.30;10.70;;;;;;;;;;5116300;28;20034;-33
2023/10/31 14:04:28;;;;;;;20.13;10.23;;;;;;;;;;5116617;28;20020;-33
2023/10/31 14:06:54;;;;;;;17.70;10.77;;;;;;;;;;5097841;28;20362;-33
2023/10/31 14:09:19;;;;;;;20.90;11.60;;;;;;;;;;5116097;28;20053;-33
2023/10/31 14:11:45;;;;;;;26.20;12.60;;;;;;;;;;5116324;28;20069;-33
2023/10/31 14:14:12;;;;;;;30.02;14.85;;;;;;;;;;5116101;28;20047;-34
2023/10/31 14:16:40;;;;;;;28.40;15.02;;;;;;;;;;5115849;28;20016;-33
2023/10/31 14:19:07;;;;;;;31.08;16.20;;;;;;;;;;5116486;28;20019;-33
2023/10/31 14:21:32;;;;;;;32.67;16.52;;;;;;;;;;5116267;28;20477;-33
2023/10/31 14:23:58;;;;;;;35.33;16.75;;;;;;;;;;5116062;28;20099;-33
2023/10/31 14:26:23;;;;;;;34.03;17.03;;;;;;;;;;5115794;28;20038;-33
2023/10/31 14:28:49;;;;;;;29.73;17.05;;;;;;;;;;5115781;28;20030;-33